sensor_id;sensor_type;location;lat;lon;timestamp;pressure;altitude;pressure_sealevel;temperature;humidity
78121;BME280;67585;44.802;10.332;2024-01-15T00:01:43;100143.75;;;3.58;84.45
78121;BME280;67585;44.802;10.332;2024-01-15T00:04:12;100122.78;;;3.13;84.84
78121;BME280;67585;44.802;10.332;2024-01-15T00:06:37;100115.38;;;3.33;85.14
78121;BME280;67585;44.802;10.332;2024-01-15T00:09:02;100118.25;;;3.50;84.73
78121;BME280;67585;44.802;10.332;2024-01-15T00:11:28;100100.53;;;3.26;84.45
78121;BME280;67585;44.802;10.332;2024-01-15T00:13:53;100115.38;;;3.15;85.23
78121;BME280;67585;44.802;10.332;2024-01-15T00:16:19;100107.63;;;2.95;85.48
78121;BME280;67585;44.802;10.332;2024-01-15T00:18:44;100100.31;;;2.90;86.01
78121;BME280;67585;44.802;10.332;2024-01-15T00:21:10;100121.81;;;3.26;85.92
78121;BME280;67585;44.802;10.332;2024-01-15T00:23:35;100089.34;;;3.35;84.62
78121;BME280;67585;44.802;10.332;2024-01-15T00:26:00;100101.78;;;3.23;85.43
78121;BME280;67585;44.802;10.332;2024-01-15T00:28:26;100096.16;;;2.76;86.15
78121;BME280;67585;44.802;10.332;2024-01-15T00:30:51;100088.78;;;2.96;86.51
78121;BME280;67585;44.802;10.332;2024-01-15T00:33:16;100103.78;;;3.09;86.06
78121;BME280;67585;44.802;10.332;2024-01-15T00:35:42;100069.03;;;3.22;85.46
78121;BME280;67585;44.802;10.332;2024-01-15T00:38:07;100082.84;;;3.31;85.55
78121;BME280;67585;44.802;10.332;2024-01-15T00:40:33;100092.63;;;3.37;85.50
78121;BME280;67585;44.802;10.332;2024-01-15T00:42:58;100086.56;;;3.12;84.91
78121;BME280;67585;44.802;10.332;2024-01-15T00:45:23;100008.94;;;2.85;85.51
78121;BME280;67585;44.802;10.332;2024-01-15T00:47:49;100088.50;;;3.05;84.91
78121;BME280;67585;44.802;10.332;2024-01-15T00:50:14;100064.63;;;3.16;85.01
78121;BME280;67585;44.802;10.332;2024-01-15T00:52:40;100074.22;;;3.17;85.58
78121;BME280;67585;44.802;10.332;2024-01-15T00:55:06;100070.28;;;3.20;85.22
78121;BME280;67585;44.802;10.332;2024-01-15T00:57:31;100064.03;;;3.14;85.04
78121;BME280;67585;44.802;10.332;2024-01-15T00:59:56;100072.22;;;3.13;85.13
78121;BME280;67585;44.802;10.332;2024-01-15T01:02:22;100041.66;;;3.04;85.25
78121;BME280;67585;44.802;10.332;2024-01-15T01:04:47;100040.59;;;3.05;84.81
78121;BME280;67585;44.802;10.332;2024-01-15T01:07:13;100050.63;;;3.21;85.56
78121;BME280;67585;44.802;10.332;2024-01-15T01:09:38;100013.78;;;2.88;85.03
78121;BME280;67585;44.802;10.332;2024-01-15T01:12:04;100068.41;;;3.09;85.68
78121;BME280;67585;44.802;10.332;2024-01-15T01:14:29;100074.31;;;3.11;85.22
78121;BME280;67585;44.802;10.332;2024-01-15T01:16:54;100070.22;;;3.27;84.54
78121;BME280;67585;44.802;10.332;2024-01-15T01:19:20;100059.34;;;3.28;84.55
78121;BME280;67585;44.802;10.332;2024-01-15T01:21:45;100055.28;;;3.26;85.09
78121;BME280;67585;44.802;10.332;2024-01-15T01:24:10;100065.75;;;3.39;85.42
78121;BME280;67585;44.802;10.332;2024-01-15T01:26:36;100065.22;;;3.49;85.03
78121;BME280;67585;44.802;10.332;2024-01-15T01:29:01;100077.44;;;3.38;84.50
78121;BME280;67585;44.802;10.332;2024-01-15T01:31:27;100079.44;;;3.42;84.24
78121;BME280;67585;44.802;10.332;2024-01-15T01:33:53;100074.97;;;3.55;83.76
78121;BME280;67585;44.802;10.332;2024-01-15T01:36:18;100049.91;;;3.14;84.10
78121;BME280;67585;44.802;10.332;2024-01-15T01:38:43;100038.53;;;3.37;84.55
78121;BME280;67585;44.802;10.332;2024-01-15T01:41:09;100040.94;;;3.27;84.50
78121;BME280;67585;44.802;10.332;2024-01-15T01:43:35;100036.88;;;3.24;84.97
78121;BME280;67585;44.802;10.332;2024-01-15T01:46:01;100051.56;;;3.27;84.44
78121;BME280;67585;44.802;10.332;2024-01-15T01:48:28;100048.19;;;3.19;85.04
78121;BME280;67585;44.802;10.332;2024-01-15T01:51:00;100028.97;;;3.17;85.16
78121;BME280;67585;44.802;10.332;2024-01-15T01:53:27;100025.38;;;3.12;84.47
78121;BME280;67585;44.802;10.332;2024-01-15T01:55:54;100037.72;;;3.36;85.17
78121;BME280;67585;44.802;10.332;2024-01-15T01:58:21;100040.94;;;3.27;84.80
78121;BME280;67585;44.802;10.332;2024-01-15T02:00:47;100039.03;;;3.46;84.37
78121;BME280;67585;44.802;10.332;2024-01-15T02:03:13;100033.63;;;3.22;85.05
78121;BME280;67585;44.802;10.332;2024-01-15T02:05:39;100031.34;;;3.07;84.86
78121;BME280;67585;44.802;10.332;2024-01-15T02:08:05;100043.97;;;3.30;84.54
78121;BME280;67585;44.802;10.332;2024-01-15T02:10:31;100027.09;;;3.36;85.14
78121;BME280;67585;44.802;10.332;2024-01-15T02:12:57;100007.50;;;3.00;85.24
78121;BME280;67585;44.802;10.332;2024-01-15T02:15:23;100018.63;;;3.28;85.00
78121;BME280;67585;44.802;10.332;2024-01-15T02:18:05;100005.88;;;2.99;85.93
78121;BME280;67585;44.802;10.332;2024-01-15T02:20:32;100005.69;;;3.13;85.70
78121;BME280;67585;44.802;10.332;2024-01-15T02:23:24;100020.63;;;3.14;85.90
78121;BME280;67585;44.802;10.332;2024-01-15T02:25:49;100008.28;;;3.19;85.98
78121;BME280;67585;44.802;10.332;2024-01-15T02:28:16;99991.38;;;3.14;85.68
78121;BME280;67585;44.802;10.332;2024-01-15T02:30:42;99986.78;;;3.21;85.42
78121;BME280;67585;44.802;10.332;2024-01-15T02:33:08;100003.66;;;3.27;85.28
78121;BME280;67585;44.802;10.332;2024-01-15T02:35:34;100004.84;;;3.31;85.08
78121;BME280;67585;44.802;10.332;2024-01-15T02:38:02;100008.66;;;3.23;85.73
78121;BME280;67585;44.802;10.332;2024-01-15T02:40:28;100005.88;;;3.30;85.99
78121;BME280;67585;44.802;10.332;2024-01-15T02:42:53;100011.03;;;3.43;85.80
78121;BME280;67585;44.802;10.332;2024-01-15T02:45:19;100010.44;;;3.41;85.19
78121;BME280;67585;44.802;10.332;2024-01-15T02:47:45;99995.78;;;3.20;85.09
78121;BME280;67585;44.802;10.332;2024-01-15T02:50:10;99997.03;;;3.17;85.45
78121;BME280;67585;44.802;10.332;2024-01-15T02:52:35;99995.09;;;3.25;85.96
78121;BME280;67585;44.802;10.332;2024-01-15T02:55:01;99990.44;;;3.20;86.46
78121;BME280;67585;44.802;10.332;2024-01-15T02:57:26;99976.22;;;3.14;85.70
78121;BME280;67585;44.802;10.332;2024-01-15T02:59:52;99976.13;;;3.21;85.25
78121;BME280;67585;44.802;10.332;2024-01-15T03:02:17;99957.25;;;3.22;85.76
78121;BME280;67585;44.802;10.332;2024-01-15T03:04:43;99953.16;;;3.08;85.27
78121;BME280;67585;44.802;10.332;2024-01-15T03:07:09;99945.50;;;3.00;86.38
78121;BME280;67585;44.802;10.332;2024-01-15T03:09:34;99948.34;;;3.17;85.96
78121;BME280;67585;44.802;10.332;2024-01-15T03:11:59;99946.03;;;2.90;86.08
78121;BME280;67585;44.802;10.332;2024-01-15T03:14:25;99943.59;;;2.89;86.81
78121;BME280;67585;44.802;10.332;2024-01-15T03:16:51;99937.50;;;3.00;86.81
78121;BME280;67585;44.802;10.332;2024-01-15T03:19:17;99939.50;;;3.05;86.66
78121;BME280;67585;44.802;10.332;2024-01-15T03:21:42;99921.88;;;2.92;86.28
78121;BME280;67585;44.802;10.332;2024-01-15T03:24:08;99940.81;;;3.14;86.62
78121;BME280;67585;44.802;10.332;2024-01-15T03:26:33;99920.69;;;2.88;86.10
78121;BME280;67585;44.802;10.332;2024-01-15T03:28:58;99899.38;;;2.76;87.13
78121;BME280;67585;44.802;10.332;2024-01-15T03:31:24;99910.88;;;2.88;86.18
78121;BME280;67585;44.802;10.332;2024-01-15T03:33:49;99943.94;;;3.11;86.86
78121;BME280;67585;44.802;10.332;2024-01-15T03:36:15;99941.28;;;3.11;86.06
78121;BME280;67585;44.802;10.332;2024-01-15T03:38:43;99941.94;;;3.06;86.13
78121;BME280;67585;44.802;10.332;2024-01-15T03:41:08;99910.94;;;3.12;86.06
78121;BME280;67585;44.802;10.332;2024-01-15T03:43:34;99894.31;;;3.16;85.67
78121;BME280;67585;44.802;10.332;2024-01-15T03:45:59;99910.44;;;3.33;85.44
78121;BME280;67585;44.802;10.332;2024-01-15T03:48:25;99914.59;;;3.41;85.80
78121;BME280;67585;44.802;10.332;2024-01-15T03:50:50;99915.66;;;3.40;85.29
78121;BME280;67585;44.802;10.332;2024-01-15T03:53:16;99913.00;;;3.40;85.67
78121;BME280;67585;44.802;10.332;2024-01-15T03:55:42;99913.13;;;3.45;84.59
78121;BME280;67585;44.802;10.332;2024-01-15T03:58:07;99910.88;;;3.42;85.33
78121;BME280;67585;44.802;10.332;2024-01-15T04:00:32;99903.03;;;3.35;85.34
78121;BME280;67585;44.802;10.332;2024-01-15T04:02:58;99900.81;;;3.32;85.14
78121;BME280;67585;44.802;10.332;2024-01-15T04:05:23;99884.50;;;3.29;84.62
78121;BME280;67585;44.802;10.332;2024-01-15T04:07:49;99873.16;;;3.33;84.63
78121;BME280;67585;44.802;10.332;2024-01-15T04:10:14;99882.53;;;3.24;84.94
78121;BME280;67585;44.802;10.332;2024-01-15T04:12:39;99899.22;;;3.43;84.90
78121;BME280;67585;44.802;10.332;2024-01-15T04:15:05;99860.91;;;2.90;85.13
78121;BME280;67585;44.802;10.332;2024-01-15T04:17:31;99891.69;;;3.28;85.69
78121;BME280;67585;44.802;10.332;2024-01-15T04:19:56;99870.63;;;2.85;85.92
78121;BME280;67585;44.802;10.332;2024-01-15T04:22:22;99846.16;;;3.18;85.71
78121;BME280;67585;44.802;10.332;2024-01-15T04:24:48;99860.53;;;3.29;84.79
78121;BME280;67585;44.802;10.332;2024-01-15T04:27:13;99856.94;;;3.35;84.92
78121;BME280;67585;44.802;10.332;2024-01-15T04:29:39;99845.50;;;3.34;84.88
78121;BME280;67585;44.802;10.332;2024-01-15T04:32:05;99856.00;;;3.17;84.96
78121;BME280;67585;44.802;10.332;2024-01-15T04:34:30;99845.22;;;3.00;85.45
78121;BME280;67585;44.802;10.332;2024-01-15T04:36:55;99813.94;;;2.42;86.11
78121;BME280;67585;44.802;10.332;2024-01-15T04:39:21;99849.75;;;3.12;85.78
78121;BME280;67585;44.802;10.332;2024-01-15T04:41:47;99843.25;;;3.08;85.88
78121;BME280;67585;44.802;10.332;2024-01-15T04:44:13;99839.31;;;2.87;85.21
78121;BME280;67585;44.802;10.332;2024-01-15T04:46:38;99805.06;;;2.48;86.79
78121;BME280;67585;44.802;10.332;2024-01-15T04:49:03;99846.06;;;2.71;85.87
78121;BME280;67585;44.802;10.332;2024-01-15T04:51:29;99846.81;;;2.90;85.68
78121;BME280;67585;44.802;10.332;2024-01-15T04:53:54;99825.50;;;2.78;85.80
78121;BME280;67585;44.802;10.332;2024-01-15T04:56:19;99847.53;;;2.97;85.71
78121;BME280;67585;44.802;10.332;2024-01-15T04:58:45;99842.25;;;2.78;86.42
78121;BME280;67585;44.802;10.332;2024-01-15T05:01:11;99852.25;;;2.95;85.91
78121;BME280;67585;44.802;10.332;2024-01-15T05:03:37;99872.72;;;2.64;86.39
78121;BME280;67585;44.802;10.332;2024-01-15T05:06:03;99847.00;;;2.46;86.13
78121;BME280;67585;44.802;10.332;2024-01-15T05:08:28;99878.28;;;2.93;85.76
78121;BME280;67585;44.802;10.332;2024-01-15T05:10:53;99851.66;;;2.51;85.68
78121;BME280;67585;44.802;10.332;2024-01-15T05:13:19;99878.59;;;2.85;85.85
78121;BME280;67585;44.802;10.332;2024-01-15T05:15:44;99879.91;;;2.94;85.75
78121;BME280;67585;44.802;10.332;2024-01-15T05:18:09;99888.66;;;2.83;86.02
78121;BME280;67585;44.802;10.332;2024-01-15T05:20:35;99889.13;;;2.80;85.42
78121;BME280;67585;44.802;10.332;2024-01-15T05:23:00;99896.97;;;2.86;85.45
78121;BME280;67585;44.802;10.332;2024-01-15T05:25:26;99889.94;;;2.62;86.24
78121;BME280;67585;44.802;10.332;2024-01-15T05:27:51;99872.56;;;2.77;85.61
78121;BME280;67585;44.802;10.332;2024-01-15T05:30:17;99868.13;;;2.71;85.35
78121;BME280;67585;44.802;10.332;2024-01-15T05:32:42;99859.75;;;2.26;85.68
78121;BME280;67585;44.802;10.332;2024-01-15T05:35:07;99834.94;;;2.13;86.89
78121;BME280;67585;44.802;10.332;2024-01-15T05:37:33;99836.00;;;2.43;85.25
78121;BME280;67585;44.802;10.332;2024-01-15T05:39:58;99835.25;;;2.54;85.29
78121;BME280;67585;44.802;10.332;2024-01-15T05:42:24;99809.63;;;2.11;85.68
78121;BME280;67585;44.802;10.332;2024-01-15T05:44:49;99826.41;;;2.11;85.73
78121;BME280;67585;44.802;10.332;2024-01-15T05:47:15;99829.34;;;2.52;86.06
78121;BME280;67585;44.802;10.332;2024-01-15T05:49:40;99817.19;;;2.44;85.54
78121;BME280;67585;44.802;10.332;2024-01-15T05:52:05;99825.00;;;2.69;84.79
78121;BME280;67585;44.802;10.332;2024-01-15T05:54:31;99818.16;;;2.62;84.59
78121;BME280;67585;44.802;10.332;2024-01-15T05:56:57;99818.41;;;2.60;83.91
78121;BME280;67585;44.802;10.332;2024-01-15T05:59:22;99803.25;;;2.61;84.40
78121;BME280;67585;44.802;10.332;2024-01-15T06:01:48;99801.50;;;2.54;83.69
78121;BME280;67585;44.802;10.332;2024-01-15T06:04:13;99800.16;;;2.64;83.96
78121;BME280;67585;44.802;10.332;2024-01-15T06:06:38;99817.03;;;2.58;83.75
78121;BME280;67585;44.802;10.332;2024-01-15T06:09:04;99774.72;;;2.68;83.81
78121;BME280;67585;44.802;10.332;2024-01-15T06:11:32;99803.72;;;2.69;83.97
78121;BME280;67585;44.802;10.332;2024-01-15T06:13:58;99811.84;;;2.63;84.02
78121;BME280;67585;44.802;10.332;2024-01-15T06:16:25;99819.97;;;2.80;83.68
78121;BME280;67585;44.802;10.332;2024-01-15T06:18:51;99832.34;;;2.86;83.41
78121;BME280;67585;44.802;10.332;2024-01-15T06:21:16;99843.72;;;3.05;82.78
78121;BME280;67585;44.802;10.332;2024-01-15T06:23:42;99832.50;;;2.61;83.06
78121;BME280;67585;44.802;10.332;2024-01-15T06:26:07;99796.91;;;2.62;83.08
78121;BME280;67585;44.802;10.332;2024-01-15T06:28:33;99802.13;;;2.68;82.70
78121;BME280;67585;44.802;10.332;2024-01-15T06:30:58;99786.84;;;2.22;83.97
78121;BME280;67585;44.802;10.332;2024-01-15T06:33:24;99807.28;;;2.51;84.10
78121;BME280;67585;44.802;10.332;2024-01-15T06:35:50;99820.47;;;2.58;84.07
78121;BME280;67585;44.802;10.332;2024-01-15T06:38:15;99827.78;;;2.63;83.29
78121;BME280;67585;44.802;10.332;2024-01-15T06:40:41;99835.63;;;2.69;83.57
78121;BME280;67585;44.802;10.332;2024-01-15T06:43:14;99840.28;;;2.74;84.09
78121;BME280;67585;44.802;10.332;2024-01-15T06:45:40;99801.50;;;2.54;83.26
78121;BME280;67585;44.802;10.332;2024-01-15T06:48:06;99796.94;;;2.73;83.15
78121;BME280;67585;44.802;10.332;2024-01-15T06:50:32;99816.75;;;2.89;81.99
78121;BME280;67585;44.802;10.332;2024-01-15T06:52:58;99820.00;;;3.03;83.24
78121;BME280;67585;44.802;10.332;2024-01-15T06:55:23;99814.69;;;2.91;82.49
78121;BME280;67585;44.802;10.332;2024-01-15T06:57:49;99788.38;;;2.71;82.28
78121;BME280;67585;44.802;10.332;2024-01-15T07:00:15;99788.97;;;2.73;83.42
78121;BME280;67585;44.802;10.332;2024-01-15T07:02:41;99808.16;;;2.75;82.94
78121;BME280;67585;44.802;10.332;2024-01-15T07:05:06;99790.09;;;2.66;83.35
78121;BME280;67585;44.802;10.332;2024-01-15T07:07:32;99814.09;;;2.89;82.80
78121;BME280;67585;44.802;10.332;2024-01-15T07:09:57;99756.81;;;2.63;82.95
78121;BME280;67585;44.802;10.332;2024-01-15T07:12:22;99812.59;;;3.05;84.01
78121;BME280;67585;44.802;10.332;2024-01-15T07:14:49;99776.34;;;2.69;83.08
78121;BME280;67585;44.802;10.332;2024-01-15T07:17:15;99783.72;;;2.67;83.72
78121;BME280;67585;44.802;10.332;2024-01-15T07:19:40;99787.03;;;2.92;83.09
78121;BME280;67585;44.802;10.332;2024-01-15T07:22:06;99810.03;;;2.98;83.04
78121;BME280;67585;44.802;10.332;2024-01-15T07:24:32;99779.28;;;3.03;82.75
78121;BME280;67585;44.802;10.332;2024-01-15T07:26:59;99798.72;;;3.15;81.93
78121;BME280;67585;44.802;10.332;2024-01-15T07:29:24;99799.19;;;3.12;83.46
78121;BME280;67585;44.802;10.332;2024-01-15T07:31:51;99776.84;;;2.89;83.10
78121;BME280;67585;44.802;10.332;2024-01-15T07:34:17;99775.25;;;3.00;83.76
78121;BME280;67585;44.802;10.332;2024-01-15T07:36:46;99768.41;;;2.92;83.46
78121;BME280;67585;44.802;10.332;2024-01-15T07:39:11;99789.25;;;3.07;83.84
78121;BME280;67585;44.802;10.332;2024-01-15T07:41:37;99798.53;;;3.28;83.27
78121;BME280;67585;44.802;10.332;2024-01-15T07:44:03;99802.56;;;3.31;83.54
78121;BME280;67585;44.802;10.332;2024-01-15T07:46:28;99756.03;;;2.74;82.98
78121;BME280;67585;44.802;10.332;2024-01-15T07:48:54;99809.13;;;3.05;83.75
78121;BME280;67585;44.802;10.332;2024-01-15T07:51:23;99799.53;;;3.15;84.05
78121;BME280;67585;44.802;10.332;2024-01-15T07:53:49;99801.66;;;3.13;82.90
78121;BME280;67585;44.802;10.332;2024-01-15T07:56:14;99804.03;;;3.03;83.25
78121;BME280;67585;44.802;10.332;2024-01-15T07:58:39;99787.06;;;3.04;83.61
78121;BME280;67585;44.802;10.332;2024-01-15T08:01:05;99807.53;;;3.27;83.58
78121;BME280;67585;44.802;10.332;2024-01-15T08:03:31;99775.47;;;2.87;83.56
78121;BME280;67585;44.802;10.332;2024-01-15T08:05:56;99810.88;;;3.22;83.77
78121;BME280;67585;44.802;10.332;2024-01-15T08:08:25;99763.00;;;3.11;83.94
78121;BME280;67585;44.802;10.332;2024-01-15T08:10:54;99776.06;;;3.24;83.19
78121;BME280;67585;44.802;10.332;2024-01-15T08:13:20;99803.09;;;7.52;83.20
78121;BME280;67585;44.802;10.332;2024-01-15T08:15:46;99778.06;;;7.79;76.45
78121;BME280;67585;44.802;10.332;2024-01-15T08:18:12;99829.22;;;5.99;73.08
78121;BME280;67585;44.802;10.332;2024-01-15T08:20:37;99832.31;;;4.56;76.89
78121;BME280;67585;44.802;10.332;2024-01-15T08:23:04;99796.72;;;3.93;78.76
78121;BME280;67585;44.802;10.332;2024-01-15T08:25:29;99804.38;;;3.89;79.41
78121;BME280;67585;44.802;10.332;2024-01-15T08:27:56;99839.34;;;3.93;80.51
78121;BME280;67585;44.802;10.332;2024-01-15T08:30:22;99832.50;;;3.85;80.94
78121;BME280;67585;44.802;10.332;2024-01-15T08:32:51;99848.00;;;4.00;80.89
78121;BME280;67585;44.802;10.332;2024-01-15T08:35:17;99838.53;;;3.92;81.65
78121;BME280;67585;44.802;10.332;2024-01-15T08:37:42;99829.53;;;3.70;81.57
78121;BME280;67585;44.802;10.332;2024-01-15T08:40:08;99855.59;;;3.79;81.89
78121;BME280;67585;44.802;10.332;2024-01-15T08:42:33;99845.94;;;4.02;82.25
78121;BME280;67585;44.802;10.332;2024-01-15T08:44:59;99813.88;;;3.85;81.88
78121;BME280;67585;44.802;10.332;2024-01-15T08:47:24;99843.38;;;4.07;81.36
78121;BME280;67585;44.802;10.332;2024-01-15T08:49:50;99849.41;;;3.91;81.92
78121;BME280;67585;44.802;10.332;2024-01-15T08:52:16;99841.91;;;3.88;82.03
78121;BME280;67585;44.802;10.332;2024-01-15T08:54:41;99774.09;;;3.43;82.02
78121;BME280;67585;44.802;10.332;2024-01-15T08:57:07;99810.63;;;3.71;82.49
78121;BME280;67585;44.802;10.332;2024-01-15T08:59:32;99821.38;;;3.88;81.81
78121;BME280;67585;44.802;10.332;2024-01-15T09:01:57;99805.66;;;3.75;81.54
78121;BME280;67585;44.802;10.332;2024-01-15T09:04:23;99828.59;;;3.76;81.75
78121;BME280;67585;44.802;10.332;2024-01-15T09:06:49;99795.13;;;3.68;81.82
78121;BME280;67585;44.802;10.332;2024-01-15T09:09:15;99842.88;;;4.22;81.98
78121;BME280;67585;44.802;10.332;2024-01-15T09:11:41;99843.19;;;4.37;81.51
78121;BME280;67585;44.802;10.332;2024-01-15T09:14:06;99796.72;;;3.93;81.09
78121;BME280;67585;44.802;10.332;2024-01-15T09:16:33;99788.94;;;4.03;81.39
78121;BME280;67585;44.802;10.332;2024-01-15T09:18:58;99815.94;;;4.35;81.07
78121;BME280;67585;44.802;10.332;2024-01-15T09:21:23;99825.84;;;4.23;80.69
78121;BME280;67585;44.802;10.332;2024-01-15T09:23:52;99776.44;;;3.92;80.93
78121;BME280;67585;44.802;10.332;2024-01-15T09:26:17;99830.06;;;4.36;81.50
78121;BME280;67585;44.802;10.332;2024-01-15T09:28:43;99826.88;;;4.50;80.64
78121;BME280;67585;44.802;10.332;2024-01-15T09:31:08;99821.06;;;4.54;80.52
78121;BME280;67585;44.802;10.332;2024-01-15T09:33:33;99828.69;;;4.33;80.34
78121;BME280;67585;44.802;10.332;2024-01-15T09:36:03;99830.19;;;4.41;80.51
78121;BME280;67585;44.802;10.332;2024-01-15T09:38:31;99807.56;;;4.43;79.89
78121;BME280;67585;44.802;10.332;2024-01-15T09:40:57;99813.78;;;4.49;79.95
78121;BME280;67585;44.802;10.332;2024-01-15T09:43:23;99827.41;;;4.64;80.11
78121;BME280;67585;44.802;10.332;2024-01-15T09:45:49;99841.25;;;4.61;79.39
78121;BME280;67585;44.802;10.332;2024-01-15T09:48:15;99831.16;;;4.80;79.37
78121;BME280;67585;44.802;10.332;2024-01-15T09:50:41;99837.06;;;4.82;79.24
78121;BME280;67585;44.802;10.332;2024-01-15T09:53:08;99838.00;;;4.59;79.34
78121;BME280;67585;44.802;10.332;2024-01-15T09:55:35;99833.41;;;4.71;79.26
78121;BME280;67585;44.802;10.332;2024-01-15T09:58:02;99799.84;;;4.76;79.33
78121;BME280;67585;44.802;10.332;2024-01-15T10:00:28;99799.56;;;4.89;78.27
78121;BME280;67585;44.802;10.332;2024-01-15T10:02:55;99789.13;;;5.04;77.72
78121;BME280;67585;44.802;10.332;2024-01-15T10:05:21;99783.06;;;4.92;77.12
78121;BME280;67585;44.802;10.332;2024-01-15T10:07:47;99786.06;;;5.29;77.02
78121;BME280;67585;44.802;10.332;2024-01-15T10:10:15;99787.94;;;5.51;75.58
78121;BME280;67585;44.802;10.332;2024-01-15T10:12:41;99781.72;;;5.84;74.88
78121;BME280;67585;44.802;10.332;2024-01-15T10:15:09;99774.97;;;6.48;73.57
78121;BME280;67585;44.802;10.332;2024-01-15T10:17:38;99729.63;;;6.63;70.97
78121;BME280;67585;44.802;10.332;2024-01-15T10:20:16;99782.81;;;7.19;69.81
78121;BME280;67585;44.802;10.332;2024-01-15T10:22:42;99770.78;;;7.21;69.78
78121;BME280;67585;44.802;10.332;2024-01-15T10:25:12;99752.13;;;6.99;69.23
78121;BME280;67585;44.802;10.332;2024-01-15T10:27:38;99774.97;;;7.55;68.74
78121;BME280;67585;44.802;10.332;2024-01-15T10:30:04;99741.00;;;7.65;67.36
78121;BME280;67585;44.802;10.332;2024-01-15T10:32:31;99767.31;;;7.74;66.42
78121;BME280;67585;44.802;10.332;2024-01-15T10:34:57;99744.44;;;7.56;66.83
78121;BME280;67585;44.802;10.332;2024-01-15T10:37:24;99769.63;;;8.23;66.78
78121;BME280;67585;44.802;10.332;2024-01-15T10:39:49;99752.03;;;8.63;65.33
78121;BME280;67585;44.802;10.332;2024-01-15T10:42:15;99718.59;;;7.87;65.54
78121;BME280;67585;44.802;10.332;2024-01-15T10:44:41;99727.47;;;8.03;65.82
78121;BME280;67585;44.802;10.332;2024-01-15T10:47:08;99723.22;;;8.32;65.85
78121;BME280;67585;44.802;10.332;2024-01-15T10:49:34;99695.66;;;8.52;63.69
78121;BME280;67585;44.802;10.332;2024-01-15T10:52:02;99679.28;;;8.54;64.06
78121;BME280;67585;44.802;10.332;2024-01-15T10:54:29;99705.28;;;8.28;65.17
78121;BME280;67585;44.802;10.332;2024-01-15T10:56:57;99700.13;;;8.06;65.06
78121;BME280;67585;44.802;10.332;2024-01-15T10:59:23;99691.56;;;8.29;66.35
78121;BME280;67585;44.802;10.332;2024-01-15T11:01:50;99655.34;;;8.22;64.89
78121;BME280;67585;44.802;10.332;2024-01-15T11:04:18;99698.81;;;8.29;64.19
78121;BME280;67585;44.802;10.332;2024-01-15T11:06:53;99698.59;;;8.61;64.09
78121;BME280;67585;44.802;10.332;2024-01-15T11:09:18;99692.91;;;8.27;64.47
78121;BME280;67585;44.802;10.332;2024-01-15T11:11:45;99689.66;;;7.99;65.74
78121;BME280;67585;44.802;10.332;2024-01-15T11:14:38;99691.31;;;8.36;65.56
78121;BME280;67585;44.802;10.332;2024-01-15T11:17:04;99688.63;;;8.36;64.98
78121;BME280;67585;44.802;10.332;2024-01-15T11:19:48;99657.00;;;8.43;64.94
78121;BME280;67585;44.802;10.332;2024-01-15T11:24:57;99660.41;;;9.20;62.82
78121;BME280;67585;44.802;10.332;2024-01-15T11:27:47;99643.00;;;8.92;63.41
78121;BME280;67585;44.802;10.332;2024-01-15T11:30:13;99646.72;;;9.07;61.84
78121;BME280;67585;44.802;10.332;2024-01-15T11:32:40;99613.78;;;8.60;62.66
78121;BME280;67585;44.802;10.332;2024-01-15T11:35:10;99627.75;;;8.62;62.89
78121;BME280;67585;44.802;10.332;2024-01-15T11:42:58;99632.81;;;8.69;63.56
78121;BME280;67585;44.802;10.332;2024-01-15T11:45:23;99557.69;;;8.23;64.04
78121;BME280;67585;44.802;10.332;2024-01-15T11:50:40;99598.47;;;8.81;64.04
78121;BME280;67585;44.802;10.332;2024-01-15T11:53:13;99587.66;;;9.02;63.47
78121;BME280;67585;44.802;10.332;2024-01-15T11:55:43;99518.47;;;8.68;62.86
78121;BME280;67585;44.802;10.332;2024-01-15T11:58:10;99596.78;;;9.01;63.31
78121;BME280;67585;44.802;10.332;2024-01-15T12:00:48;99555.41;;;9.02;63.84
78121;BME280;67585;44.802;10.332;2024-01-15T12:03:20;99565.34;;;9.06;63.13
78121;BME280;67585;44.802;10.332;2024-01-15T12:05:45;99585.69;;;9.23;64.09
78121;BME280;67585;44.802;10.332;2024-01-15T12:08:11;99556.22;;;9.02;64.20
78121;BME280;67585;44.802;10.332;2024-01-15T12:10:37;99552.22;;;9.54;62.67
78121;BME280;67585;44.802;10.332;2024-01-15T12:13:10;99575.50;;;9.14;63.58
78121;BME280;67585;44.802;10.332;2024-01-15T12:15:36;99572.94;;;8.89;64.00
78121;BME280;67585;44.802;10.332;2024-01-15T12:18:02;99575.47;;;9.30;62.47
78121;BME280;67585;44.802;10.332;2024-01-15T12:20:32;99571.16;;;9.24;63.15
78121;BME280;67585;44.802;10.332;2024-01-15T12:22:58;99563.47;;;9.02;64.75
78121;BME280;67585;44.802;10.332;2024-01-15T12:25:24;99558.16;;;8.86;64.84
78121;BME280;67585;44.802;10.332;2024-01-15T12:27:52;99556.34;;;8.71;64.29
78121;BME280;67585;44.802;10.332;2024-01-15T12:30:18;99551.72;;;8.82;63.55
78121;BME280;67585;44.802;10.332;2024-01-15T12:32:43;99548.53;;;8.70;63.71
78121;BME280;67585;44.802;10.332;2024-01-15T12:35:13;99538.31;;;8.77;64.12
78121;BME280;67585;44.802;10.332;2024-01-15T12:37:43;99534.19;;;9.00;63.29
78121;BME280;67585;44.802;10.332;2024-01-15T12:40:09;99525.91;;;8.96;63.29
78121;BME280;67585;44.802;10.332;2024-01-15T12:42:36;99536.03;;;9.10;63.02
78121;BME280;67585;44.802;10.332;2024-01-15T12:45:05;99502.78;;;8.95;62.66
78121;BME280;67585;44.802;10.332;2024-01-15T12:47:31;99516.00;;;8.87;63.33
78121;BME280;67585;44.802;10.332;2024-01-15T12:49:57;99519.22;;;8.89;63.62
78121;BME280;67585;44.802;10.332;2024-01-15T12:52:29;99511.00;;;8.60;64.01
78121;BME280;67585;44.802;10.332;2024-01-15T12:54:54;99499.13;;;8.71;63.74
78121;BME280;67585;44.802;10.332;2024-01-15T12:57:20;99482.84;;;8.42;64.97
78121;BME280;67585;44.802;10.332;2024-01-15T12:59:46;99487.41;;;8.41;65.57
78121;BME280;67585;44.802;10.332;2024-01-15T13:02:12;99483.13;;;8.40;65.42
78121;BME280;67585;44.802;10.332;2024-01-15T13:04:38;99467.84;;;8.25;65.37